createdAt,value
2018-05-29T00:02:05.213Z,36.38
2018-05-29T00:04:36.677Z,35.67
2018-05-29T00:07:05.910Z,34.70
2018-05-29T00:09:38.839Z,32.70
2018-05-29T00:12:11.824Z,35.50
2018-05-29T00:14:47.095Z,36.03
2018-05-29T00:17:16.871Z,37.35
2018-05-29T00:19:49.665Z,37.30
2018-05-29T00:22:22.582Z,36.97
2018-05-29T00:24:57.147Z,39.00
2018-05-29T00:27:27.652Z,37.58
2018-05-29T00:29:59.022Z,35.58
2018-05-29T00:32:29.788Z,36.20
2018-05-29T00:35:01.387Z,36.55
2018-05-29T00:37:31.569Z,36.58
2018-05-29T00:40:03.111Z,38.92
2018-05-29T00:42:38.777Z,38.42
2018-05-29T00:45:09.482Z,39.97
2018-05-29T00:47:39.399Z,38.80
2018-05-29T00:50:11.903Z,38.50
2018-05-29T00:52:43.446Z,39.60
2018-05-29T00:55:40.922Z,40.17
2018-05-29T00:58:12.344Z,36.70
2018-05-29T01:00:43.846Z,40.70
2018-05-29T01:03:15.733Z,44.22
2018-05-29T01:05:46.648Z,40.33
2018-05-29T01:08:20.048Z,38.70
2018-05-29T01:10:55.382Z,38.60
2018-05-29T01:13:29.748Z,42.55
2018-05-29T01:16:02.725Z,43.60
2018-05-29T01:18:35.212Z,43.65
2018-05-29T01:21:06.538Z,44.75
2018-05-29T01:23:36.556Z,42.78
2018-05-29T01:26:07.855Z,41.58
2018-05-29T01:28:39.280Z,43.63
2018-05-29T01:31:11.863Z,44.22
2018-05-29T01:33:44.673Z,41.55
2018-05-29T01:36:17.705Z,45.55
2018-05-29T01:38:50.593Z,43.03
2018-05-29T01:41:23.662Z,40.22
2018-05-29T01:43:53.725Z,40.28
2018-05-29T01:46:27.363Z,43.33
2018-05-29T01:49:01.924Z,43.47
2018-05-29T01:51:33.741Z,44.47
2018-05-29T01:54:05.156Z,46.13
2018-05-29T01:56:34.585Z,47.38
2018-05-29T01:59:06.677Z,41.65
2018-05-29T02:01:39.728Z,43.50
2018-05-29T02:04:09.634Z,43.72
2018-05-29T02:06:40.145Z,46.75
2018-05-29T02:09:11.727Z,44.47
2018-05-29T02:11:44.582Z,48.90
2018-05-29T02:14:17.508Z,48.45
2018-05-29T02:16:50.575Z,45.20
2018-05-29T02:19:20.602Z,51.13
2018-05-29T02:21:52.072Z,48.85
2018-05-29T02:24:25.340Z,51.88
2018-05-29T02:26:56.806Z,50.10
2018-05-29T02:29:29.762Z,56.95
2018-05-29T02:32:03.152Z,51.47
2018-05-29T02:34:34.608Z,54.15
2018-05-29T02:37:06.113Z,53.92
2018-05-29T02:39:39.357Z,53.10
2018-05-29T02:42:12.505Z,53.85
2018-05-29T02:44:43.824Z,51.28
2018-05-29T02:47:15.813Z,55.00
2018-05-29T02:49:48.629Z,54.38
2018-05-29T02:52:20.734Z,55.58
2018-05-29T02:54:50.639Z,54.45
2018-05-29T02:57:19.483Z,55.42
2018-05-29T02:59:49.223Z,56.35
2018-05-29T03:02:19.232Z,55.85
2018-05-29T03:04:52.168Z,57.25
2018-05-29T03:07:25.015Z,55.67
2018-05-29T03:09:57.967Z,56.10
2018-05-29T03:12:29.352Z,57.60
2018-05-29T03:15:01.330Z,57.00
2018-05-29T03:17:33.879Z,53.70
2018-05-29T03:20:05.256Z,57.47
2018-05-29T03:22:35.976Z,59.03
2018-05-29T03:25:06.304Z,58.15
2018-05-29T03:27:35.359Z,58.15
2018-05-29T03:30:06.029Z,58.95
2018-05-29T03:32:39.004Z,61.67
2018-05-29T03:35:09.901Z,57.38
2018-05-29T03:37:44.366Z,59.38
2018-05-29T03:40:15.890Z,58.70
2018-05-29T03:42:50.134Z,60.58
2018-05-29T03:45:21.738Z,61.88
2018-05-29T03:47:54.603Z,57.03
2018-05-29T03:50:27.560Z,62.20
2018-05-29T03:53:01.870Z,61.95
2018-05-29T03:55:33.411Z,64.22
2018-05-29T03:58:04.773Z,58.22
2018-05-29T04:00:36.196Z,65.45
2018-05-29T04:03:07.965Z,62.17
2018-05-29T04:05:43.499Z,60.63
2018-05-29T04:08:14.755Z,59.30
2018-05-29T04:10:46.066Z,57.47
2018-05-29T04:13:17.475Z,59.90
2018-05-29T04:15:49.366Z,58.38
2018-05-29T04:18:20.653Z,55.67
2018-05-29T04:20:54.943Z,60.30
2018-05-29T04:23:26.353Z,57.47
2018-05-29T04:25:57.876Z,59.05
2018-05-29T04:28:29.600Z,58.90
2018-05-29T04:30:59.577Z,57.40
2018-05-29T04:33:32.494Z,56.90
2018-05-29T04:36:05.021Z,60.38
2018-05-29T04:38:36.419Z,59.08
2018-05-29T04:41:07.308Z,58.22
2018-05-29T04:43:38.109Z,56.50
2018-05-29T04:46:12.361Z,61.53
2018-05-29T04:48:48.338Z,62.67
2018-05-29T04:51:20.250Z,58.10
2018-05-29T04:53:51.601Z,60.35
2018-05-29T04:56:22.973Z,60.00
2018-05-29T04:58:55.154Z,57.53
2018-05-29T05:01:27.942Z,63.50
2018-05-29T05:04:01.301Z,58.08
2018-05-29T05:06:34.129Z,60.50
2018-05-29T05:09:04.213Z,58.13
2018-05-29T05:11:38.232Z,61.25
2018-05-29T05:14:11.398Z,60.90
2018-05-29T05:16:45.146Z,55.88
2018-05-29T05:19:17.500Z,60.00
2018-05-29T05:21:49.501Z,55.55
2018-05-29T05:24:20.854Z,58.90
2018-05-29T05:26:52.810Z,58.72
2018-05-29T05:29:24.353Z,61.37
2018-05-29T05:31:56.767Z,56.28
2018-05-29T05:34:28.280Z,59.30
2018-05-29T05:37:01.900Z,59.60
2018-05-29T05:39:33.471Z,60.95
2018-05-29T05:42:08.030Z,58.42
2018-05-29T05:44:40.888Z,61.03
2018-05-29T05:47:12.405Z,63.63
2018-05-29T05:49:45.336Z,62.50
2018-05-29T05:52:16.004Z,62.05
2018-05-29T05:54:50.324Z,59.65
2018-05-29T05:57:20.237Z,57.38
2018-05-29T05:59:51.615Z,63.92
2018-05-29T06:02:24.914Z,58.67
2018-05-29T06:04:57.966Z,59.03
2018-05-29T06:07:30.305Z,59.75
2018-05-29T06:10:02.129Z,54.70
2018-05-29T06:12:34.295Z,58.85
2018-05-29T06:15:07.030Z,60.63
2018-05-29T06:17:38.321Z,61.45
2018-05-29T06:20:09.786Z,57.53
2018-05-29T06:22:41.987Z,59.50
2018-05-29T06:25:14.811Z,67.30
2018-05-29T06:27:49.205Z,57.88
2018-05-29T06:30:22.055Z,63.08
2018-05-29T06:32:52.933Z,56.90
2018-05-29T06:35:27.248Z,59.17
2018-05-29T06:38:00.672Z,62.08
2018-05-29T06:40:32.632Z,60.90
2018-05-29T06:43:04.334Z,60.53
2018-05-29T06:45:35.706Z,65.97
2018-05-29T06:48:07.409Z,59.53
2018-05-29T06:50:40.198Z,62.58
2018-05-29T06:53:11.593Z,59.55
2018-05-29T06:55:44.472Z,60.63
2018-05-29T06:58:17.353Z,56.83
2018-05-29T07:00:50.201Z,60.22
2018-05-29T07:03:24.657Z,60.17
2018-05-29T07:05:57.468Z,60.90
2018-05-29T07:08:31.893Z,61.63
2018-05-29T07:11:04.709Z,58.42
2018-05-29T07:13:36.055Z,54.50
2018-05-29T07:16:10.375Z,58.70
2018-05-29T07:18:41.731Z,55.38
2018-05-29T07:21:14.078Z,54.72
2018-05-29T07:23:46.931Z,56.78
2018-05-29T07:26:19.683Z,54.47
2018-05-29T07:28:51.746Z,54.00
2018-05-29T07:31:21.912Z,52.17
2018-05-29T07:33:54.702Z,54.92
2018-05-29T07:36:26.018Z,56.30
2018-05-29T07:38:55.811Z,53.33
2018-05-29T07:41:28.288Z,53.42
2018-05-29T07:44:01.557Z,54.65
2018-05-29T07:46:35.746Z,50.10
2018-05-29T07:49:09.307Z,49.60
2018-05-29T07:51:40.738Z,51.47
2018-05-29T07:54:12.036Z,46.78
2018-05-29T07:56:44.891Z,50.85
2018-05-29T07:59:16.318Z,50.05
2018-05-29T08:01:47.681Z,51.47
2018-05-29T08:04:17.684Z,49.67
2018-05-29T08:06:51.890Z,48.97
2018-05-29T08:09:23.689Z,46.78
2018-05-29T08:11:58.089Z,51.60
2018-05-29T08:14:33.613Z,50.78
2018-05-29T08:17:06.476Z,47.65
2018-05-29T08:19:38.334Z,54.17
2018-05-29T08:22:12.467Z,55.25
2018-05-29T08:24:46.756Z,48.60
2018-05-29T08:27:20.284Z,50.00
2018-05-29T08:29:51.740Z,49.42
2018-05-29T08:32:23.047Z,50.67
2018-05-29T08:34:55.821Z,49.10
2018-05-29T08:37:29.304Z,50.67
2018-05-29T08:40:02.430Z,48.65
2018-05-29T08:42:32.351Z,57.75
2018-05-29T08:45:06.666Z,53.87
2018-05-29T08:47:39.609Z,53.28
2018-05-29T08:50:12.526Z,54.22
2018-05-29T08:52:45.499Z,51.17
2018-05-29T08:55:15.896Z,49.33
2018-05-29T08:57:45.755Z,48.95
2018-05-29T09:00:18.511Z,51.58
2018-05-29T09:02:51.708Z,50.28
2018-05-29T09:05:23.051Z,51.10
2018-05-29T09:07:55.790Z,51.37
2018-05-29T09:10:28.530Z,50.67
2018-05-29T09:13:02.655Z,46.72
2018-05-29T09:15:33.460Z,47.30
2018-05-29T09:18:06.407Z,40.00
2018-05-29T09:20:36.976Z,38.97
2018-05-29T09:23:09.752Z,39.92
2018-05-29T09:25:40.618Z,36.42
2018-05-29T09:28:11.977Z,37.90
2018-05-29T09:30:45.396Z,43.45
2018-05-29T09:33:18.848Z,37.10
2018-05-29T09:35:52.722Z,41.33
2018-05-29T09:38:25.511Z,31.35
2018-05-29T09:40:56.945Z,38.70
2018-05-29T09:43:28.281Z,38.83
2018-05-29T09:46:01.095Z,36.05
2018-05-29T09:48:35.224Z,32.00
2018-05-29T09:51:07.305Z,32.83
2018-05-29T09:53:37.845Z,34.05
2018-05-29T09:56:10.659Z,36.97
2018-05-29T09:58:42.074Z,31.08
2018-05-29T10:01:15.033Z,31.58
2018-05-29T10:03:46.200Z,31.83
2018-05-29T10:06:19.016Z,33.90
2018-05-29T10:08:50.383Z,34.30
2018-05-29T10:11:20.315Z,34.25
2018-05-29T10:13:53.024Z,34.53
2018-05-29T10:16:25.129Z,35.35
2018-05-29T10:18:59.402Z,35.92
2018-05-29T10:21:30.991Z,31.75
2018-05-29T10:24:03.740Z,32.05
2018-05-29T10:26:35.855Z,34.75
2018-05-29T10:29:08.631Z,29.50
2018-05-29T10:31:38.620Z,32.20
2018-05-29T10:34:12.892Z,28.40
2018-05-29T10:36:45.768Z,28.70
2018-05-29T10:39:18.972Z,30.50
2018-05-29T10:41:51.896Z,27.65
2018-05-29T10:44:23.265Z,25.08
2018-05-29T10:46:55.271Z,24.08
2018-05-29T10:49:28.156Z,21.75
2018-05-29T10:52:02.372Z,23.30
2018-05-29T10:54:36.963Z,23.15
2018-05-29T10:57:09.846Z,22.70
2018-05-29T10:59:43.395Z,27.25
2018-05-29T11:02:14.813Z,25.80
2018-05-29T11:04:46.855Z,25.70
2018-05-29T11:07:18.319Z,25.58
2018-05-29T11:09:51.895Z,24.95
2018-05-29T11:12:23.203Z,24.35
2018-05-29T11:14:56.081Z,21.95
2018-05-29T11:17:27.699Z,19.80
2018-05-29T11:19:57.532Z,19.48
2018-05-29T11:22:27.341Z,27.27
2018-05-29T11:25:00.306Z,22.02
2018-05-29T11:27:33.083Z,20.58
2018-05-29T11:30:04.376Z,19.67
2018-05-29T11:32:38.637Z,22.50
2018-05-29T11:35:09.973Z,18.90
2018-05-29T11:37:42.989Z,23.35
2018-05-29T11:40:16.677Z,21.12
2018-05-29T11:42:49.373Z,25.48
2018-05-29T11:45:19.244Z,24.65
2018-05-29T11:47:53.660Z,21.15
2018-05-29T11:50:25.128Z,19.55
2018-05-29T11:52:56.438Z,23.10
2018-05-29T11:55:28.277Z,21.23
2018-05-29T11:58:02.654Z,23.17
2018-05-29T12:00:35.486Z,20.77
2018-05-29T12:03:08.805Z,23.30
2018-05-29T12:05:44.115Z,25.12
2018-05-29T12:08:16.964Z,23.80
2018-05-29T12:10:48.631Z,23.27
2018-05-29T12:13:19.033Z,21.65
2018-05-29T12:15:53.269Z,22.67
2018-05-29T12:18:26.527Z,22.67
2018-05-29T12:20:59.204Z,23.02
2018-05-29T12:23:29.071Z,22.95
2018-05-29T12:26:00.204Z,23.75
2018-05-29T12:28:33.873Z,22.23
2018-05-29T12:31:07.009Z,21.95
2018-05-29T12:33:37.691Z,22.40
2018-05-29T12:36:10.555Z,19.95
2018-05-29T12:38:42.586Z,21.35
2018-05-29T12:41:14.460Z,21.50
2018-05-29T12:43:48.730Z,22.65
2018-05-29T12:46:20.590Z,22.17
2018-05-29T12:48:50.966Z,21.87
2018-05-29T12:51:24.192Z,22.70
2018-05-29T12:53:55.485Z,22.55
2018-05-29T12:56:26.793Z,23.77
2018-05-29T12:58:59.635Z,19.35
2018-05-29T13:01:29.454Z,21.08
2018-05-29T13:04:00.795Z,21.02
2018-05-29T13:06:32.877Z,21.95
2018-05-29T13:09:04.317Z,25.37
2018-05-29T13:11:34.725Z,23.60
2018-05-29T13:14:06.944Z,21.52
2018-05-29T13:16:39.669Z,19.20
2018-05-29T13:19:09.490Z,22.98
2018-05-29T13:21:40.927Z,21.90
2018-05-29T13:24:16.165Z,20.55
2018-05-29T13:26:49.022Z,21.90
2018-05-29T13:29:18.867Z,22.13
2018-05-29T13:31:50.222Z,18.90
2018-05-29T13:34:23.617Z,22.75
2018-05-29T13:36:55.423Z,23.48
2018-05-29T13:39:29.115Z,23.62
2018-05-29T13:42:09.755Z,21.20
2018-05-29T13:44:42.462Z,21.92
2018-05-29T13:47:16.002Z,21.00
2018-05-29T13:49:50.272Z,21.40
2018-05-29T13:52:23.060Z,20.90
2018-05-29T13:54:56.622Z,21.15
2018-05-29T13:57:30.903Z,22.85
2018-05-29T14:00:05.476Z,17.20
2018-05-29T14:02:36.814Z,11.82
2018-05-29T14:05:08.234Z,8.20
2018-05-29T14:07:39.897Z,8.95
2018-05-29T14:10:12.736Z,10.35
2018-05-29T14:12:44.045Z,10.18
2018-05-29T14:15:17.393Z,8.35
2018-05-29T14:17:50.321Z,9.05
2018-05-29T14:20:23.250Z,8.23
2018-05-29T14:22:57.631Z,8.90
2018-05-29T14:25:31.065Z,9.13
2018-05-29T14:28:03.871Z,9.13
2018-05-29T14:30:36.502Z,10.55
2018-05-29T14:33:10.852Z,11.12
2018-05-29T14:35:45.279Z,11.65
2018-05-29T14:38:18.707Z,12.60
2018-05-29T14:40:51.622Z,13.00
2018-05-29T14:43:25.965Z,13.73
2018-05-29T14:45:58.781Z,13.88
2018-05-29T14:48:31.142Z,14.63
2018-05-29T14:51:04.218Z,15.02
2018-05-29T14:53:37.840Z,15.02
2018-05-29T14:56:07.710Z,14.93
2018-05-29T14:58:39.059Z,14.13
2018-05-29T15:01:08.968Z,12.30
2018-05-29T15:03:43.263Z,12.88
2018-05-29T15:06:15.032Z,10.82
2018-05-29T15:08:49.343Z,11.40
2018-05-29T15:11:19.220Z,11.48
2018-05-29T15:13:52.048Z,10.93
2018-05-29T15:16:26.198Z,10.88
2018-05-29T15:18:56.165Z,13.35
2018-05-29T15:21:30.520Z,12.05
2018-05-29T15:24:24.927Z,13.27
2018-05-29T15:26:57.976Z,18.05
2018-05-29T15:29:32.095Z,21.73
2018-05-29T15:32:05.182Z,15.77
2018-05-29T15:34:38.100Z,18.40
2018-05-29T15:37:12.868Z,23.23
2018-05-29T15:39:45.851Z,21.37
2018-05-29T15:42:19.238Z,23.52
2018-05-29T15:45:04.351Z,16.30
2018-05-29T15:47:37.212Z,15.35
2018-05-29T15:50:07.337Z,16.85
2018-05-29T15:52:40.188Z,15.57
2018-05-29T15:55:12.991Z,16.20
2018-05-29T15:57:44.375Z,18.80
2018-05-29T16:00:17.788Z,16.27
2018-05-29T16:02:50.642Z,15.85
2018-05-29T16:05:24.976Z,14.87
2018-05-29T16:07:55.596Z,14.98
2018-05-29T16:10:27.618Z,16.85
2018-05-29T16:12:59.634Z,17.15
2018-05-29T16:15:33.287Z,10.70
2018-05-29T16:18:07.624Z,10.55
2018-05-29T16:20:41.863Z,9.10
2018-05-29T16:23:15.166Z,11.50
2018-05-29T16:25:46.698Z,10.50
2018-05-29T16:28:21.030Z,13.50
2018-05-29T16:30:52.383Z,12.65
2018-05-29T16:33:22.703Z,14.90
2018-05-29T16:35:54.929Z,13.70
2018-05-29T16:38:29.278Z,13.50
2018-05-29T16:41:01.356Z,13.68
2018-05-29T16:43:31.804Z,12.07
2018-05-29T16:46:04.673Z,10.60
2018-05-29T16:48:38.218Z,10.65
2018-05-29T16:51:09.711Z,12.00
2018-05-29T16:53:41.771Z,12.40
2018-05-29T16:56:13.357Z,14.20
2018-05-29T16:58:46.264Z,14.38
2018-05-29T17:01:18.198Z,15.57
2018-05-29T17:03:49.686Z,14.82
2018-05-29T17:06:21.136Z,15.48
2018-05-29T17:08:52.662Z,16.17
2018-05-29T17:11:24.009Z,15.82
2018-05-29T17:13:57.033Z,18.37
2018-05-29T17:16:29.944Z,21.10
2018-05-29T17:19:04.479Z,19.52
2018-05-29T17:21:38.734Z,23.12
2018-05-29T17:24:11.527Z,19.65
2018-05-29T17:26:43.131Z,20.55
2018-05-29T17:29:15.218Z,21.15
2018-05-29T17:31:49.572Z,22.17
2018-05-29T17:34:20.943Z,21.60
2018-05-29T17:36:52.424Z,16.12
2018-05-29T17:39:24.083Z,19.27
2018-05-29T17:41:55.536Z,17.00
2018-05-29T17:44:27.974Z,16.75
2018-05-29T17:46:59.592Z,16.23
2018-05-29T17:49:32.606Z,18.48
2018-05-29T17:52:04.775Z,15.10
2018-05-29T17:54:37.683Z,15.23
2018-05-29T17:57:10.248Z,20.42
2018-05-29T17:59:42.266Z,17.95
2018-05-29T18:02:16.942Z,19.73
2018-05-29T18:04:51.505Z,19.92
2018-05-29T18:07:26.132Z,20.60
2018-05-29T18:10:00.720Z,21.92
2018-05-29T18:12:32.102Z,19.60
2018-05-29T18:15:04.461Z,22.35
2018-05-29T18:17:37.398Z,21.73
2018-05-29T18:20:10.353Z,21.48
2018-05-29T18:22:42.870Z,21.60
2018-05-29T18:25:17.375Z,20.35
2018-05-29T18:27:50.284Z,18.90
2018-05-29T18:30:24.117Z,19.52
2018-05-29T18:32:57.352Z,21.45
2018-05-29T18:35:31.818Z,24.42
2018-05-29T18:38:06.557Z,24.87
2018-05-29T18:40:36.649Z,22.25
2018-05-29T18:43:08.106Z,24.60
2018-05-29T18:45:42.508Z,23.50
2018-05-29T18:48:12.548Z,22.10
2018-05-29T18:50:45.613Z,22.05
2018-05-29T18:53:15.953Z,33.75
2018-05-29T18:55:47.535Z,42.80
2018-05-29T18:58:19.019Z,54.17
2018-05-29T19:00:53.733Z,66.20
2018-05-29T19:03:26.650Z,60.55
2018-05-29T19:05:58.458Z,65.75
2018-05-29T19:08:29.411Z,62.95
2018-05-29T19:11:00.316Z,63.17
2018-05-29T19:13:33.318Z,63.53
2018-05-29T19:16:06.491Z,57.15
2018-05-29T19:18:40.632Z,58.15
2018-05-29T19:21:12.114Z,54.28
2018-05-29T19:23:46.462Z,55.47
2018-05-29T19:26:17.228Z,53.13
2018-05-29T19:28:49.928Z,53.13
2018-05-29T19:31:24.514Z,63.80
2018-05-29T19:33:56.004Z,42.33
2018-05-29T19:36:30.906Z,49.00
2018-05-29T19:39:03.915Z,45.30
2018-05-29T19:41:35.586Z,40.80
2018-05-29T19:44:10.263Z,41.37
2018-05-29T19:46:43.518Z,40.03
2018-05-29T19:49:15.095Z,37.55
2018-05-29T19:51:48.120Z,36.92
2018-05-29T19:54:21.086Z,37.15
2018-05-29T19:56:53.941Z,42.13
2018-05-29T19:59:26.418Z,40.22
2018-05-29T20:01:59.334Z,42.30
2018-05-29T20:04:29.317Z,39.47
2018-05-29T20:07:00.806Z,41.33
2018-05-29T20:09:33.036Z,43.35
2018-05-29T20:12:05.169Z,41.90
2018-05-29T20:14:38.353Z,39.95
2018-05-29T20:17:11.532Z,50.00
2018-05-29T20:19:41.742Z,46.67
2018-05-29T20:22:15.532Z,42.42
2018-05-29T20:24:48.452Z,44.88
2018-05-29T20:27:20.113Z,55.58
2018-05-29T20:29:54.488Z,50.97
2018-05-29T20:32:28.298Z,50.67
2018-05-29T20:35:01.648Z,54.15
2018-05-29T20:37:35.882Z,56.45
2018-05-29T20:40:09.009Z,55.85
2018-05-29T20:42:40.374Z,67.12
2018-05-29T20:45:13.206Z,55.38
2018-05-29T20:47:43.900Z,53.15
2018-05-29T20:50:18.197Z,62.90
2018-05-29T20:52:49.816Z,48.55
2018-05-29T20:55:19.727Z,50.08
2018-05-29T20:57:51.177Z,44.33
2018-05-29T21:00:24.205Z,34.55
2018-05-29T21:02:57.487Z,31.98
2018-05-29T21:05:30.386Z,29.70
2018-05-29T21:08:03.710Z,26.80
2018-05-29T21:10:36.935Z,28.98
2018-05-29T21:13:09.792Z,31.48
2018-05-29T21:15:43.143Z,37.88
2018-05-29T21:18:16.387Z,44.40
2018-05-29T21:20:48.824Z,48.60
2018-05-29T21:23:21.251Z,48.13
2018-05-29T21:25:54.219Z,48.17
2018-05-29T21:28:27.398Z,50.88
2018-05-29T21:31:00.001Z,52.17
2018-05-29T21:33:34.366Z,65.60
2018-05-29T21:36:05.845Z,42.67
2018-05-29T21:38:38.975Z,50.30
2018-05-29T21:41:11.985Z,50.45
2018-05-29T21:43:44.915Z,48.55
2018-05-29T21:46:16.417Z,55.12
2018-05-29T21:48:50.963Z,51.63
2018-05-29T21:51:23.927Z,49.85
2018-05-29T21:53:58.687Z,48.78
2018-05-29T21:56:32.031Z,60.65
2018-05-29T21:59:05.002Z,64.05
2018-05-29T22:01:37.980Z,70.95
2018-05-29T22:04:11.065Z,74.45
2018-05-29T22:06:42.385Z,84.03
2018-05-29T22:09:12.709Z,77.10
2018-05-29T22:11:45.996Z,81.82
2018-05-29T22:14:18.956Z,88.25
2018-05-29T22:16:52.277Z,82.78
2018-05-29T22:19:25.269Z,93.15
2018-05-29T22:21:59.863Z,92.05
2018-05-29T22:24:32.703Z,88.68
2018-05-29T22:27:04.383Z,85.28
2018-05-29T22:29:39.267Z,90.07
2018-05-29T22:32:10.712Z,81.85
2018-05-29T22:34:43.557Z,87.78
2018-05-29T22:37:16.735Z,79.00
2018-05-29T22:39:48.316Z,77.22
2018-05-29T22:42:22.813Z,79.30
2018-05-29T22:44:55.265Z,75.35
2018-05-29T22:47:26.881Z,73.62
2018-05-29T22:49:59.785Z,77.32
2018-05-29T22:52:34.294Z,76.05
2018-05-29T22:55:06.342Z,76.43
2018-05-29T22:57:39.442Z,77.45
2018-05-29T23:00:12.458Z,81.55
2018-05-29T23:02:45.775Z,76.40
2018-05-29T23:05:18.944Z,80.55
2018-05-29T23:07:52.095Z,84.45
2018-05-29T23:10:26.874Z,86.68
2018-05-29T23:12:59.876Z,85.97
2018-05-29T23:15:33.195Z,82.10
2018-05-29T23:18:06.171Z,83.22
2018-05-29T23:20:39.104Z,84.60
2018-05-29T23:23:13.802Z,86.87
2018-05-29T23:25:46.732Z,84.70
2018-05-29T23:28:19.757Z,84.47
2018-05-29T23:30:53.008Z,89.82
2018-05-29T23:33:26.019Z,90.68
2018-05-29T23:35:55.953Z,91.93
2018-05-29T23:38:29.471Z,87.03
2018-05-29T23:41:01.097Z,78.35
2018-05-29T23:43:34.147Z,76.07
2018-05-29T23:46:07.054Z,82.90
2018-05-29T23:48:41.740Z,82.50
2018-05-29T23:51:11.639Z,97.07
2018-05-29T23:53:46.520Z,98.45
2018-05-29T23:56:18.637Z,92.57
2018-05-29T23:58:53.383Z,98.78
